Estación Meteorológica Peña el Pijo (Robertgarden) [ 12/09/19 16:26:08 CET ]

Fecha Hora Presion(HPa) Temp (°C) Humedad % Rocio (°C) Viento ( m/s) Direccion Lluvia 1Hora(mm) Lluvia 24H(mm) LLuvia Total(mm)
2019-Oct-03 01:01:53 1011.400 9.3 68 3.7         490.25
2019-Oct-03 02:01:40 1011.300 9.1 69 3.7         490.25
2019-Oct-03 03:02:08 1011.000 8.1 72 3.4         490.25
2019-Oct-03 04:03:15 1010.500 7.8 73 3.3         490.25
2019-Oct-03 05:01:40 1010.500 7.6 74 3.3         490.25
2019-Oct-03 06:01:42 1010.600 7.8 74 3.5         490.25
2019-Oct-03 07:01:47 1010.500 7.4 75 3.2         490.25
2019-Oct-03 08:01:37 1010.900 6.9 77 3.1         490.25
2019-Oct-03 09:01:35 1011.300 7.1 77 3.3         490.25
2019-Oct-03 10:01:59 1011.400 13.9 67 7.8         490.25
2019-Oct-03 11:01:52 1011.100 19.3 51 8.9         490.25
2019-Oct-03 12:01:49 1011.700 22.1 39 7.5         490.25
2019-Oct-03 13:01:36 1011.000 24.8 34 7.8         490.25
2019-Oct-03 14:01:40 1011.000 25.9 31 7.4         490.25
2019-Oct-03 15:01:43 1010.600 26.3 30 7.4         490.25
2019-Oct-03 16:01:55 1010.300 27.1 28 6.9         490.25
2019-Oct-03 17:01:39 1010.000 26.6 27 5.9         490.25
2019-Oct-03 18:01:39 1010.200 25.8 28 5.8         490.25
2019-Oct-03 19:01:58 1010.100 22.6 33 5.4         490.25
2019-Oct-03 20:01:41 1011.000 18.4 44 5.8         490.25
2019-Oct-03 21:01:44 1011.700 14.1 56 5.4         490.25
2019-Oct-03 22:01:42 1012.000 12.2 62 5.1         490.25
2019-Oct-03 23:01:51 1011.900 12.1 64 5.5         490.25

Temperatura Máxima:27°    Temperatura Mínima:
Presión Máxima:1012.000 Hpa    Presión Mínima:1010.000 Hpa


Volver